createdAt,value
2022-07-30T00:00:37.478Z,64.80
2022-07-30T00:05:36.580Z,64.90
2022-07-30T00:10:35.599Z,65.10
2022-07-30T00:15:34.514Z,65.40
2022-07-30T00:20:33.518Z,65.50
2022-07-30T00:25:32.525Z,65.70
2022-07-30T00:30:30.497Z,65.80
2022-07-30T00:35:29.326Z,69.40
2022-07-30T00:40:28.441Z,68.30
2022-07-30T00:45:27.712Z,68.20
2022-07-30T00:50:26.965Z,68.00
2022-07-30T00:55:25.578Z,68.00
2022-07-30T01:00:24.293Z,68.00
2022-07-30T01:05:23.612Z,68.20
2022-07-30T01:10:22.397Z,68.20
2022-07-30T01:15:20.507Z,68.60
2022-07-30T01:20:19.403Z,69.70
2022-07-30T01:25:18.613Z,69.10
2022-07-30T01:30:17.442Z,69.10
2022-07-30T01:35:16.444Z,69.10
2022-07-30T01:40:15.368Z,69.20
2022-07-30T01:45:14.976Z,69.20
2022-07-30T01:50:13.850Z,69.30
2022-07-30T01:55:17.410Z,69.40
2022-07-30T02:00:18.131Z,69.60
2022-07-30T02:05:17.482Z,69.70
2022-07-30T02:10:18.335Z,69.90
2022-07-30T02:15:18.581Z,70.00
2022-07-30T02:20:17.880Z,71.20
2022-07-30T02:25:17.637Z,70.80
2022-07-30T02:30:17.256Z,70.90
2022-07-30T02:35:16.860Z,70.90
2022-07-30T02:40:15.467Z,71.00
2022-07-30T02:45:15.301Z,71.10
2022-07-30T02:50:14.481Z,71.30
2022-07-30T02:55:13.552Z,71.40
2022-07-30T03:00:12.596Z,71.50
2022-07-30T03:05:11.567Z,71.60
2022-07-30T03:10:10.488Z,71.90
2022-07-30T03:15:09.600Z,72.00
2022-07-30T03:20:08.909Z,72.10
2022-07-30T03:25:07.897Z,72.20
2022-07-30T03:30:06.807Z,72.20
2022-07-30T03:35:08.668Z,72.40
2022-07-30T03:40:06.716Z,72.50
2022-07-30T03:45:05.703Z,72.70
2022-07-30T03:50:05.335Z,72.80
2022-07-30T03:55:14.538Z,72.80
2022-07-30T04:00:18.273Z,75.00
2022-07-30T04:05:18.211Z,74.20
2022-07-30T04:10:34.404Z,74.30
2022-07-30T04:16:04.862Z,74.60
2022-07-30T04:20:34.638Z,74.50
2022-07-30T04:25:33.721Z,74.50
2022-07-30T04:30:34.422Z,74.70
2022-07-30T04:35:53.552Z,74.60
2022-07-30T04:40:52.653Z,74.50
2022-07-30T04:45:51.988Z,74.70
2022-07-30T04:50:51.722Z,74.90
2022-07-30T04:55:50.731Z,75.10
2022-07-30T05:00:50.839Z,75.20
2022-07-30T05:05:52.967Z,75.30
2022-07-30T05:10:50.730Z,75.50
2022-07-30T05:15:52.165Z,75.50
2022-07-30T05:20:56.272Z,75.50
2022-07-30T05:26:06.347Z,76.00
2022-07-30T05:31:08.196Z,76.50
2022-07-30T05:36:06.581Z,76.20
2022-07-30T05:41:19.089Z,76.00
2022-07-30T05:46:18.361Z,75.80
2022-07-30T05:51:19.413Z,75.70
2022-07-30T05:56:26.442Z,75.80
2022-07-30T06:01:26.028Z,75.90
2022-07-30T06:06:25.937Z,75.60
2022-07-30T06:11:24.678Z,75.40
2022-07-30T06:16:24.112Z,75.10
2022-07-30T06:22:05.379Z,75.00
2022-07-30T06:26:35.998Z,74.80
2022-07-30T06:31:34.804Z,74.50
2022-07-30T06:36:35.520Z,74.10
2022-07-30T06:41:34.782Z,73.70
2022-07-30T06:46:33.666Z,73.30
2022-07-30T06:51:32.712Z,73.40
2022-07-30T06:56:33.509Z,73.20
2022-07-30T07:01:32.748Z,73.60
2022-07-30T07:06:32.199Z,73.20
2022-07-30T07:11:31.397Z,73.40
2022-07-30T07:16:30.791Z,73.20
2022-07-30T07:21:29.841Z,72.90
2022-07-30T07:26:28.645Z,72.60
2022-07-30T07:32:06.472Z,73.20
2022-07-30T07:36:29.693Z,73.60
2022-07-30T07:41:28.559Z,74.10
2022-07-30T07:46:33.781Z,73.30
2022-07-30T07:51:46.775Z,72.80
2022-07-30T07:56:30.686Z,71.90
2022-07-30T08:01:50.234Z,69.50
2022-07-30T08:07:07.313Z,69.20
2022-07-30T08:12:21.632Z,69.80
2022-07-30T08:17:37.792Z,69.20
2022-07-30T08:22:36.630Z,70.00
2022-07-30T08:27:35.822Z,70.00
2022-07-30T08:32:34.838Z,70.00
2022-07-30T08:37:32.823Z,69.80
2022-07-30T08:42:32.035Z,69.30
2022-07-30T08:47:46.674Z,69.10
2022-07-30T08:52:45.831Z,68.90
2022-07-30T08:57:44.739Z,68.80
2022-07-30T09:02:43.674Z,68.00
2022-07-30T09:07:45.170Z,66.70
2022-07-30T09:12:43.917Z,67.80
2022-07-30T09:17:43.641Z,67.30
2022-07-30T09:22:53.638Z,66.30
2022-07-30T09:28:16.759Z,65.60
2022-07-30T09:33:31.842Z,63.70
2022-07-30T09:38:50.384Z,64.90
2022-07-30T09:43:51.589Z,63.60
2022-07-30T09:48:50.814Z,63.50
2022-07-30T09:53:49.963Z,60.60
2022-07-30T09:58:51.267Z,59.50
2022-07-30T10:04:06.680Z,59.70
2022-07-30T10:09:13.933Z,59.80
2022-07-30T10:14:08.167Z,59.10
2022-07-30T10:19:40.006Z,57.80
2022-07-30T10:24:45.249Z,56.10
2022-07-30T10:29:43.659Z,57.60
2022-07-30T10:34:43.699Z,56.50
2022-07-30T10:39:41.782Z,56.30
2022-07-30T10:44:40.794Z,54.90
2022-07-30T10:49:41.383Z,54.20
2022-07-30T10:54:40.865Z,53.00
2022-07-30T10:59:39.859Z,53.10
2022-07-30T11:04:39.372Z,52.50
2022-07-30T11:09:40.776Z,51.20
2022-07-30T11:14:38.947Z,52.10
2022-07-30T11:19:56.922Z,50.10
2022-07-30T11:24:38.690Z,50.30
2022-07-30T11:29:51.000Z,49.90
2022-07-30T11:34:40.619Z,50.50
2022-07-30T11:39:39.953Z,49.40
2022-07-30T11:44:38.746Z,49.20
2022-07-30T11:49:37.963Z,48.60
2022-07-30T11:54:36.775Z,47.90
2022-07-30T11:59:35.787Z,46.00
2022-07-30T12:04:34.804Z,45.70
2022-07-30T12:09:33.804Z,46.20
2022-07-30T12:14:34.735Z,45.80
2022-07-30T12:19:33.770Z,45.60
2022-07-30T12:24:34.847Z,44.20
2022-07-30T12:29:33.771Z,44.10
2022-07-30T12:34:33.467Z,41.20
2022-07-30T12:39:32.791Z,39.70
2022-07-30T12:44:31.997Z,39.40
2022-07-30T12:49:39.479Z,40.00
2022-07-30T12:54:30.904Z,41.10
2022-07-30T12:59:30.172Z,41.90
2022-07-30T13:04:31.201Z,39.90
2022-07-30T13:09:29.844Z,40.30
2022-07-30T13:14:28.781Z,41.30
2022-07-30T13:19:28.633Z,41.60
2022-07-30T13:24:27.772Z,42.50
2022-07-30T13:29:25.873Z,42.10
2022-07-30T13:34:25.078Z,42.20
2022-07-30T13:39:23.912Z,42.10
2022-07-30T13:44:23.129Z,42.60
2022-07-30T13:49:22.198Z,42.90
2022-07-30T13:54:20.837Z,43.00
2022-07-30T13:59:19.892Z,44.10
2022-07-30T14:04:18.857Z,44.50
2022-07-30T14:09:18.072Z,44.00
2022-07-30T14:14:17.086Z,43.20
2022-07-30T14:19:24.159Z,42.80
2022-07-30T14:24:17.272Z,43.20
2022-07-30T14:29:16.676Z,43.10
2022-07-30T14:34:17.118Z,43.90
2022-07-30T14:39:16.079Z,43.70
2022-07-30T14:44:15.052Z,43.10
2022-07-30T14:49:16.009Z,43.50
2022-07-30T14:54:14.923Z,43.40
2022-07-30T14:59:13.872Z,43.60
2022-07-30T15:04:12.907Z,43.10
2022-07-30T15:09:11.976Z,43.00
2022-07-30T15:14:11.808Z,42.70
2022-07-30T15:19:13.277Z,42.50
2022-07-30T15:24:12.106Z,43.10
2022-07-30T15:29:13.427Z,43.60
2022-07-30T15:34:12.201Z,42.60
2022-07-30T15:39:11.125Z,42.20
2022-07-30T15:44:09.942Z,40.00
2022-07-30T15:49:09.561Z,39.80
2022-07-30T15:54:09.183Z,39.50
2022-07-30T15:59:07.999Z,39.40
2022-07-30T16:04:07.212Z,38.20
2022-07-30T16:09:07.961Z,38.00
2022-07-30T16:14:07.071Z,38.00
2022-07-30T16:19:05.068Z,37.70
2022-07-30T16:24:03.980Z,37.00
2022-07-30T16:29:03.052Z,35.00
2022-07-30T16:34:02.000Z,33.10
2022-07-30T16:39:01.286Z,31.10
2022-07-30T16:44:00.037Z,32.50
2022-07-30T16:48:58.989Z,34.10
2022-07-30T16:53:57.948Z,37.50
2022-07-30T16:58:56.982Z,39.10
2022-07-30T17:03:55.149Z,38.60
2022-07-30T17:08:57.283Z,39.00
2022-07-30T17:13:56.960Z,39.70
2022-07-30T17:18:55.164Z,40.50
2022-07-30T17:23:54.060Z,41.10
2022-07-30T17:28:53.063Z,42.20
2022-07-30T17:33:52.068Z,43.20
2022-07-30T17:38:51.013Z,42.80
2022-07-30T17:43:50.293Z,43.70
2022-07-30T17:48:49.054Z,44.80
2022-07-30T17:53:47.202Z,45.70
2022-07-30T17:58:46.100Z,46.50
2022-07-30T18:03:47.071Z,47.00
2022-07-30T18:08:46.003Z,47.80
2022-07-30T18:13:45.090Z,48.00
2022-07-30T18:18:43.991Z,48.30
2022-07-30T18:23:43.016Z,48.20
2022-07-30T18:28:42.064Z,48.10
2022-07-30T18:33:41.026Z,48.40
2022-07-30T18:38:40.101Z,48.60
2022-07-30T18:43:48.012Z,49.00
2022-07-30T18:48:39.990Z,49.40
2022-07-30T18:53:39.431Z,49.40
2022-07-30T18:58:38.335Z,49.50
2022-07-30T19:03:37.102Z,49.70
2022-07-30T19:08:36.139Z,49.70
2022-07-30T19:13:37.210Z,49.70
2022-07-30T19:18:36.218Z,49.70
2022-07-30T19:23:35.234Z,49.80
2022-07-30T19:28:34.540Z,49.90
2022-07-30T19:33:33.242Z,50.10
2022-07-30T19:38:33.158Z,50.40
2022-07-30T19:43:33.605Z,50.70
2022-07-30T19:48:36.105Z,51.10
2022-07-30T19:53:35.230Z,51.40
2022-07-30T19:58:36.337Z,51.80
2022-07-30T20:03:37.006Z,52.00
2022-07-30T20:08:36.352Z,52.40
2022-07-30T20:13:44.518Z,52.70
2022-07-30T20:18:35.267Z,54.50
2022-07-30T20:23:34.298Z,53.90
2022-07-30T20:28:35.179Z,53.90
2022-07-30T20:33:36.091Z,54.20
2022-07-30T20:38:35.719Z,54.20
2022-07-30T20:43:36.211Z,54.50
2022-07-30T20:48:37.167Z,54.60
2022-07-30T20:53:36.980Z,54.80
2022-07-30T20:58:36.203Z,55.00
2022-07-30T21:03:35.996Z,55.00
2022-07-30T21:08:35.231Z,56.40
2022-07-30T21:13:34.175Z,56.00
2022-07-30T21:18:34.216Z,56.00
2022-07-30T21:23:36.289Z,55.90
2022-07-30T21:28:36.080Z,56.00
2022-07-30T21:33:35.234Z,56.20
2022-07-30T21:38:34.392Z,56.20
2022-07-30T21:43:33.659Z,56.30
2022-07-30T21:48:32.118Z,56.50
2022-07-30T21:53:45.222Z,56.60
2022-07-30T21:58:32.490Z,56.70
2022-07-30T22:04:03.453Z,57.20
2022-07-30T22:08:32.547Z,57.50
2022-07-30T22:13:31.338Z,57.70
2022-07-30T22:18:32.367Z,57.90
2022-07-30T22:23:32.507Z,58.20
2022-07-30T22:28:30.275Z,58.40
2022-07-30T22:33:32.463Z,60.80
2022-07-30T22:38:31.535Z,59.70
2022-07-30T22:43:35.466Z,59.60
2022-07-30T22:48:32.378Z,59.50
2022-07-30T22:54:02.896Z,59.40
2022-07-30T22:58:34.484Z,59.20
2022-07-30T23:03:33.514Z,59.30
2022-07-30T23:08:32.612Z,59.20
2022-07-30T23:13:31.902Z,59.30
2022-07-30T23:18:31.363Z,59.40
2022-07-30T23:23:30.969Z,59.40
2022-07-30T23:28:30.495Z,59.60
2022-07-30T23:33:29.204Z,61.40
2022-07-30T23:38:28.774Z,60.50
2022-07-30T23:43:27.443Z,60.30
2022-07-30T23:48:26.247Z,60.20
2022-07-30T23:53:25.572Z,60.10
2022-07-30T23:58:24.477Z,60.00
